Time;durP1;ratioP1;P1;durP2;ratioP2;P2;SDS_P1;SDS_P2;PMS_P1;PMS_P2;Temp;Humidity;BMP_temperature;BMP_pressure;BME280_temperature;BME280_humidity;BME280_pressure;Samples;Min_cycle;Max_cycle;Signal;HPM_P1;HPM_P2
2024/01/16 00:01:18;;;;;;;5.07;3.15;;;;;;;;;;4993411;28;20470;-76
2024/01/16 00:03:44;;;;;;;4.78;2.78;;;1.20;99.90;;;;;;4989788;28;20384;-77
2024/01/16 00:06:10;;;;;;;5.75;2.38;;;1.20;99.90;;;;;;4991346;28;20067;-77
2024/01/16 00:08:36;;;;;;;6.47;4.20;;;1.20;99.90;;;;;;4973038;28;20053;-77
2024/01/16 00:11:02;;;;;;;3.95;3.22;;;1.20;99.90;;;;;;4989478;28;20108;-77
2024/01/16 00:13:28;;;;;;;5.25;2.50;;;;;;;;;;4991241;28;20446;-77
2024/01/16 00:15:56;;;;;;;6.43;3.30;;;1.20;99.90;;;;;;4990406;28;20026;-77
2024/01/16 00:18:22;;;;;;;5.03;2.97;;;1.10;99.90;;;;;;4991165;28;20499;-76
2024/01/16 00:20:48;;;;;;;7.53;4.30;;;;;;;;;;4990722;28;20026;-77
2024/01/16 00:23:14;;;;;;;7.85;3.97;;;;;;;;;;4990898;28;20114;-77
2024/01/16 00:25:41;;;;;;;11.70;4.90;;;;;;;;;;4989136;28;20023;-77
2024/01/16 00:28:06;;;;;;;4.93;3.03;;;1.20;99.90;;;;;;4990985;28;20027;-77
2024/01/16 00:30:33;;;;;;;6.85;3.65;;;1.10;99.90;;;;;;4990349;28;20092;-76
2024/01/16 00:32:59;;;;;;;10.30;4.13;;;1.10;99.90;;;;;;4990701;28;20043;-77
2024/01/16 00:35:25;;;;;;;5.75;2.65;;;;;;;;;;4990761;28;20034;-77
2024/01/16 00:37:52;;;;;;;5.95;4.28;;;;;;;;;;4991144;28;20027;-76
2024/01/16 00:40:18;;;;;;;9.27;3.85;;;;;;;;;;4990038;28;20046;-76
2024/01/16 00:42:44;;;;;;;7.50;3.20;;;;;;;;;;4999955;28;20037;-76
2024/01/16 00:45:10;;;;;;;6.43;3.63;;;;;;;;;;4991938;28;20029;-77
2024/01/16 00:47:36;;;;;;;5.60;3.72;;;;;;;;;;4990348;28;20373;-76
2024/01/16 00:50:02;;;;;;;8.48;3.70;;;1.00;99.90;;;;;;4990080;28;20029;-77
2024/01/16 00:52:28;;;;;;;4.85;4.18;;;;;;;;;;4990162;28;20059;-77
2024/01/16 00:54:54;;;;;;;5.55;3.50;;;;;;;;;;4990117;28;20030;-77
2024/01/16 00:57:21;;;;;;;6.13;3.58;;;;;;;;;;4990249;28;20030;-76
2024/01/16 00:59:47;;;;;;;5.82;3.15;;;;;;;;;;4977403;28;20290;-78
2024/01/16 01:02:12;;;;;;;7.75;3.83;;;1.00;99.90;;;;;;4990681;28;20034;-77
2024/01/16 01:04:40;;;;;;;7.20;5.07;;;;;;;;;;4990006;28;20037;-77
2024/01/16 01:07:06;;;;;;;11.70;4.70;;;1.10;99.90;;;;;;4990212;28;20455;-77
2024/01/16 01:09:32;;;;;;;6.05;3.70;;;1.10;99.90;;;;;;4994385;28;20070;-77
2024/01/16 01:11:58;;;;;;;8.15;3.38;;;1.20;99.90;;;;;;4997580;28;20140;-77
2024/01/16 01:14:25;;;;;;;5.15;2.80;;;;;;;;;;4989530;28;20113;-77
2024/01/16 01:16:51;;;;;;;;;;;1.20;99.90;;;;;;4989709;28;20099;-76
2024/01/16 01:19:17;;;;;;;7.80;3.83;;;;;;;;;;5008525;28;20389;-76
2024/01/16 01:21:42;;;;;;;4.47;3.13;;;1.10;99.90;;;;;;5000191;28;20498;-77
2024/01/16 01:24:09;;;;;;;13.70;4.93;;;;;;;;;;4989162;28;20041;-77
2024/01/16 01:26:34;;;;;;;17.23;6.18;;;1.10;99.90;;;;;;5001079;28;20101;-76
2024/01/16 01:29:00;;;;;;;10.20;3.75;;;;;;;;;;4988664;28;20106;-76
2024/01/16 01:31:26;;;;;;;13.90;5.20;;;1.10;99.90;;;;;;4990086;28;20042;-76
2024/01/16 01:33:52;;;;;;;5.85;3.47;;;;;;;;;;4997739;28;20057;-77
2024/01/16 01:36:18;;;;;;;8.38;3.83;;;;;;;;;;4992016;28;20030;-77
2024/01/16 01:38:44;;;;;;;4.65;3.50;;;;;;;;;;4990204;28;20030;-77
2024/01/16 01:41:11;;;;;;;8.07;4.70;;;;;;;;;;4989081;28;20392;-76
2024/01/16 01:43:37;;;;;;;;;;;1.20;99.90;;;;;;4989823;28;20038;-77
2024/01/16 01:46:14;;;;;;;8.35;4.13;;;1.20;99.90;;;;;;4972180;28;19925;-77
2024/01/16 01:48:43;;;;;;;9.07;4.30;;;1.20;99.90;;;;;;4989418;28;20474;-76
2024/01/16 01:51:10;;;;;;;5.40;2.80;;;1.20;99.90;;;;;;4999149;28;20037;-76
2024/01/16 01:53:37;;;;;;;8.73;3.80;;;1.20;99.90;;;;;;4990115;28;20026;-76
2024/01/16 01:56:07;;;;;;;6.68;2.60;;;1.20;99.90;;;;;;4989547;28;20035;-77
2024/01/16 01:58:38;;;;;;;4.45;2.58;;;1.20;99.90;;;;;;4988972;28;20114;-77
2024/01/16 02:01:05;;;;;;;9.10;4.00;;;1.30;99.90;;;;;;4972155;28;20129;-77
2024/01/16 02:03:35;;;;;;;9.90;4.43;;;1.30;99.90;;;;;;4989075;28;20031;-77
2024/01/16 02:06:02;;;;;;;8.25;3.92;;;;;;;;;;4990727;28;20034;-77
2024/01/16 02:08:28;;;;;;;8.43;4.93;;;;;;;;;;4989672;28;20034;-77
2024/01/16 02:10:54;;;;;;;6.55;3.65;;;;;;;;;;4989067;28;20411;-77
2024/01/16 02:13:23;;;;;;;7.20;4.00;;;;;;;;;;4989298;28;20023;-77
2024/01/16 02:15:50;;;;;;;9.15;4.05;;;1.20;99.90;;;;;;4988930;28;20034;-77
2024/01/16 02:18:16;;;;;;;9.05;3.55;;;;;;;;;;4989217;28;20487;-77
2024/01/16 02:20:42;;;;;;;14.55;4.90;;;1.30;99.90;;;;;;4988947;28;20053;-77
2024/01/16 02:23:09;;;;;;;8.32;5.18;;;1.10;99.90;;;;;;4989257;28;20029;-78
2024/01/16 02:25:36;;;;;;;11.75;5.53;;;;;;;;;;4999887;28;20571;-76
2024/01/16 02:28:03;;;;;;;6.35;3.65;;;1.20;99.90;;;;;;4989337;28;20021;-77
2024/01/16 02:30:29;;;;;;;10.73;6.60;;;;;;;;;;4988845;28;20069;-77
2024/01/16 02:32:54;;;;;;;5.90;3.92;;;1.20;99.90;;;;;;4990442;28;20074;-76
2024/01/16 02:35:20;;;;;;;12.23;4.38;;;;;;;;;;4974973;28;20050;-77
2024/01/16 02:37:46;;;;;;;7.85;4.15;;;;;;;;;;4993026;28;20033;-76
2024/01/16 02:40:13;;;;;;;16.83;5.75;;;;;;;;;;4992512;28;20061;-77
2024/01/16 02:42:39;;;;;;;5.97;3.53;;;;;;;;;;4992584;28;20042;-77
2024/01/16 02:45:06;;;;;;;3.88;3.47;;;1.10;99.90;;;;;;4992664;28;20038;-76
2024/01/16 02:47:32;;;;;;;7.95;3.10;;;;;;;;;;4992815;28;20061;-76
2024/01/16 02:49:59;;;;;;;4.95;3.38;;;1.10;99.90;;;;;;4992560;28;20038;-77
2024/01/16 02:52:25;;;;;;;6.20;3.20;;;;;;;;;;4992992;28;20403;-76
2024/01/16 02:54:51;;;;;;;3.97;2.72;;;;;;;;;;4992087;28;20026;-77
2024/01/16 02:57:17;;;;;;;11.95;5.32;;;;;;;;;;4993031;28;20034;-77
2024/01/16 02:59:46;;;;;;;5.78;4.00;;;0.70;99.90;;;;;;4992166;28;20618;-77
2024/01/16 03:02:12;;;;;;;9.32;3.88;;;;;;;;;;4992911;28;20038;-77
2024/01/16 03:04:38;;;;;;;7.53;4.07;;;0.90;99.90;;;;;;4992239;28;20032;-77
2024/01/16 03:07:05;;;;;;;7.50;3.75;;;0.90;99.90;;;;;;4992359;28;20026;-77
2024/01/16 03:09:31;;;;;;;8.85;4.03;;;;;;;;;;4991785;28;20026;-77
2024/01/16 03:11:57;;;;;;;6.00;3.97;;;;;;;;;;4992498;28;20038;-77
2024/01/16 03:14:23;;;;;;;5.40;3.35;;;0.90;99.90;;;;;;4991702;28;20069;-76
2024/01/16 03:16:49;;;;;;;6.50;4.10;;;0.90;99.90;;;;;;4992237;28;20062;-77
2024/01/16 03:19:15;;;;;;;10.25;5.70;;;;;;;;;;4992212;28;20483;-77
2024/01/16 03:21:41;;;;;;;9.80;3.70;;;;;;;;;;4992162;28;20030;-76
2024/01/16 03:24:07;;;;;;;12.73;6.63;;;;;;;;;;4991537;28;20472;-77
2024/01/16 03:26:34;;;;;;;6.30;4.00;;;;;;;;;;5002789;28;20026;-77
2024/01/16 03:29:00;;;;;;;8.25;5.35;;;;;;;;;;4991782;28;20549;-77
2024/01/16 03:31:26;;;;;;;6.88;3.88;;;;;;;;;;4992166;28;20053;-77
2024/01/16 03:33:52;;;;;;;7.20;3.33;;;;;;;;;;4991641;28;20022;-77
2024/01/16 03:36:18;;;;;;;4.32;3.92;;;;;;;;;;4992010;28;20376;-77
2024/01/16 03:38:44;;;;;;;15.00;4.03;;;;;;;;;;4990000;28;20026;-77
2024/01/16 03:41:13;;;;;;;7.50;4.57;;;0.80;99.90;;;;;;4991403;28;20177;-76
2024/01/16 03:43:40;;;;;;;6.68;4.43;;;0.70;99.90;;;;;;4991674;28;20037;-77
2024/01/16 03:46:06;;;;;;;9.07;5.03;;;;;;;;;;4992609;28;20156;-76
2024/01/16 03:48:32;;;;;;;6.53;2.85;;;0.60;99.90;;;;;;4991078;28;20576;-76
2024/01/16 03:50:58;;;;;;;14.82;4.05;;;;;;;;;;4991464;28;20034;-77
2024/01/16 03:53:24;;;;;;;8.48;3.80;;;;;;;;;;4991005;28;20472;-77
2024/01/16 03:55:50;;;;;;;8.60;3.80;;;0.50;99.90;;;;;;4991450;28;20022;-76
2024/01/16 03:58:16;;;;;;;6.95;3.85;;;0.60;99.90;;;;;;4991194;28;20558;-77
2024/01/16 04:00:42;;;;;;;15.43;3.50;;;0.40;99.90;;;;;;4975033;28;20161;-77
2024/01/16 04:03:08;;;;;;;7.28;4.72;;;0.50;99.90;;;;;;4991583;28;20022;-77
2024/01/16 04:05:34;;;;;;;8.70;5.00;;;0.40;99.90;;;;;;4993683;28;20376;-77
2024/01/16 04:08:00;;;;;;;12.85;4.68;;;0.40;99.90;;;;;;4990889;28;20021;-77
2024/01/16 04:10:26;;;;;;;9.57;4.78;;;0.30;99.90;;;;;;4990772;28;20039;-77
2024/01/16 04:12:52;;;;;;;6.55;3.22;;;;;;;;;;4990982;28;20048;-77
2024/01/16 04:15:18;;;;;;;6.20;4.57;;;;;;;;;;4991125;28;20492;-77
2024/01/16 04:17:44;;;;;;;12.05;4.47;;;;;;;;;;4990802;28;20491;-77
2024/01/16 04:20:10;;;;;;;4.88;3.20;;;0.00;99.90;;;;;;4991273;28;20106;-77
2024/01/16 04:22:36;;;;;;;6.03;4.13;;;0.20;99.90;;;;;;4990835;28;20014;-77
2024/01/16 04:25:04;;;;;;;6.97;3.22;;;;;;;;;;4998526;28;20495;-77
2024/01/16 04:27:31;;;;;;;15.77;7.32;;;-0.10;99.90;;;;;;4993524;28;20399;-77
2024/01/16 04:29:57;;;;;;;10.27;3.92;;;;;;;;;;4990597;28;20105;-77
2024/01/16 04:32:23;;;;;;;7.30;3.97;;;-0.40;99.90;;;;;;4990762;28;20034;-77
2024/01/16 04:34:49;;;;;;;10.32;2.63;;;;;;;;;;4990250;28;20034;-77
2024/01/16 04:37:15;;;;;;;9.05;3.72;;;;;;;;;;4990339;28;20030;-77
2024/01/16 04:39:41;;;;;;;9.75;4.65;;;-0.80;99.90;;;;;;4990892;28;20483;-77
2024/01/16 04:42:07;;;;;;;10.05;4.45;;;;;;;;;;4972566;28;20085;-77
2024/01/16 04:44:33;;;;;;;10.98;5.57;;;-0.90;99.90;;;;;;4990610;28;20866;-77
2024/01/16 04:46:59;;;;;;;9.75;2.58;;;;;;;;;;4990598;28;20038;-76
2024/01/16 04:49:24;;;;;;;7.10;4.18;;;-1.00;99.90;;;;;;4990538;28;20034;-77
2024/01/16 04:51:50;;;;;;;7.22;3.45;;;-1.00;99.90;;;;;;4990179;28;20523;-77
2024/01/16 04:54:16;;;;;;;14.00;4.50;;;;;;;;;;4990337;28;20023;-77
2024/01/16 04:56:42;;;;;;;13.48;5.60;;;;;;;;;;4989604;28;20442;-77
2024/01/16 04:59:08;;;;;;;3.92;3.05;;;;;;;;;;4990370;28;20029;-76
2024/01/16 05:01:34;;;;;;;16.30;6.68;;;;;;;;;;4990143;28;20388;-77
2024/01/16 05:04:00;;;;;;;9.73;3.72;;;;;;;;;;4989888;28;20050;-77
2024/01/16 05:06:26;;;;;;;9.85;4.50;;;;;;;;;;4990026;28;20458;-77
2024/01/16 05:08:51;;;;;;;8.25;4.40;;;-1.50;99.90;;;;;;4990514;28;20029;-77
2024/01/16 05:11:17;;;;;;;13.50;4.78;;;;;;;;;;4989686;28;20471;-77
2024/01/16 05:13:44;;;;;;;10.43;6.28;;;;;;;;;;4989989;28;20121;-77
2024/01/16 05:16:10;;;;;;;3.80;3.17;;;;;;;;;;4989876;28;20046;-77
2024/01/16 05:18:36;;;;;;;8.60;3.60;;;;;;;;;;4990142;28;20062;-77
2024/01/16 05:21:02;;;;;;;8.60;4.05;;;;;;;;;;4989873;28;20554;-78
2024/01/16 05:23:28;;;;;;;8.32;4.65;;;-1.80;99.90;;;;;;4990318;28;20030;-77
2024/01/16 05:25:54;;;;;;;6.07;4.90;;;;;;;;;;5000496;28;20471;-77
2024/01/16 05:28:20;;;;;;;5.80;4.88;;;;;;;;;;4990091;28;20033;-76
2024/01/16 05:30:46;;;;;;;6.35;4.18;;;;;;;;;;4990219;28;20033;-77
2024/01/16 05:33:12;;;;;;;11.20;5.30;;;;;;;;;;4990320;28;20022;-76
2024/01/16 05:35:38;;;;;;;8.20;5.63;;;;;;;;;;4989560;28;20484;-77
2024/01/16 05:38:05;;;;;;;4.03;3.55;;;-4.60;99.90;;;;;;4989631;28;20041;-77
2024/01/16 05:40:31;;;;;;;10.95;5.88;;;-2.20;99.90;;;;;;4989198;28;20052;-76
2024/01/16 05:42:57;;;;;;;7.35;4.10;;;-2.00;99.90;;;;;;4990137;28;20045;-77
2024/01/16 05:45:23;;;;;;;11.13;5.60;;;;;;;;;;4989172;28;20031;-76
2024/01/16 05:47:49;;;;;;;9.00;4.32;;;;;;;;;;4989784;28;20058;-77
2024/01/16 05:50:18;;;;;;;5.35;3.75;;;-2.20;99.90;;;;;;4988957;28;20061;-77
2024/01/16 05:52:44;;;;;;;7.10;4.25;;;;;;;;;;4989874;28;20105;-77
2024/01/16 05:55:10;;;;;;;10.80;5.13;;;;;;;;;;4989431;28;20058;-77
2024/01/16 05:57:37;;;;;;;31.75;6.45;;;-2.20;99.90;;;;;;4998558;28;20022;-77
2024/01/16 06:00:03;;;;;;;10.07;7.07;;;-2.60;99.90;;;;;;4991286;28;20369;-77
2024/01/16 06:02:29;;;;;;;6.22;3.70;;;;;;;;;;4989904;28;20018;-77
2024/01/16 06:04:55;;;;;;;18.83;6.78;;;;;;;;;;4989196;28;20490;-77
2024/01/16 06:07:21;;;;;;;10.55;4.95;;;;;;;;;;4990371;28;20037;-77
2024/01/16 06:09:47;;;;;;;9.65;4.18;;;-2.40;99.90;;;;;;4993184;28;20026;-77
2024/01/16 06:12:13;;;;;;;10.93;6.82;;;;;;;;;;4993240;28;20503;-77
2024/01/16 06:14:39;;;;;;;3.40;3.08;;;;;;;;;;4993061;28;20030;-77
2024/01/16 06:17:06;;;;;;;4.80;3.33;;;-2.50;99.90;;;;;;4993614;28;20068;-77
2024/01/16 06:19:32;;;;;;;6.40;5.15;;;-2.50;99.90;;;;;;4992974;28;20057;-76
2024/01/16 06:21:59;;;;;;;11.40;6.70;;;-2.60;99.90;;;;;;4992797;28;20081;-78
2024/01/16 06:24:25;;;;;;;10.65;5.00;;;;;;;;;;4995451;28;20406;-77
2024/01/16 06:26:51;;;;;;;13.52;5.65;;;;;;;;;;5001331;28;20110;-77
2024/01/16 06:29:17;;;;;;;12.85;6.07;;;;;;;;;;4989618;28;20442;-75
2024/01/16 06:31:43;;;;;;;11.23;5.05;;;;;;;;;;4990303;28;20038;-75
2024/01/16 06:34:09;;;;;;;17.10;4.65;;;;;;;;;;4975966;28;20034;-76
2024/01/16 06:36:35;;;;;;;18.95;7.03;;;;;;;;;;4991129;28;20410;-75
2024/01/16 06:39:02;;;;;;;16.05;5.30;;;;;;;;;;4990851;28;20030;-75
2024/01/16 06:41:28;;;;;;;18.90;5.55;;;;;;;;;;4984376;28;20038;-75
2024/01/16 06:43:54;;;;;;;11.32;3.97;;;;;;;;;;4983209;28;20023;-75
2024/01/16 06:46:20;;;;;;;5.68;3.80;;;;;;;;;;4989891;28;20056;-75
2024/01/16 06:48:46;;;;;;;9.73;5.95;;;;;;;;;;4987931;28;20030;-75
2024/01/16 06:51:13;;;;;;;10.95;4.60;;;-2.70;99.90;;;;;;4982750;28;20038;-75
2024/01/16 06:53:39;;;;;;;27.48;7.00;;;;;;;;;;4972971;28;20035;-75
2024/01/16 06:56:08;;;;;;;14.48;4.35;;;-3.30;99.90;;;;;;4991129;28;20054;-75
2024/01/16 06:58:35;;;;;;;10.55;4.70;;;;;;;;;;4990546;28;20069;-75
2024/01/16 07:01:01;;;;;;;9.18;4.63;;;;;;;;;;4989953;28;20053;-75
2024/01/16 07:03:27;;;;;;;7.03;3.53;;;;;;;;;;4991158;28;20446;-75
2024/01/16 07:05:53;;;;;;;10.15;4.53;;;-2.10;99.90;;;;;;4990753;28;20054;-75
2024/01/16 07:08:19;;;;;;;8.93;6.03;;;;;;;;;;4990547;28;20113;-75
2024/01/16 07:10:45;;;;;;;7.60;4.00;;;-2.50;99.90;;;;;;4989890;28;20376;-76
2024/01/16 07:13:12;;;;;;;6.47;3.80;;;;;;;;;;4990869;28;20026;-76
2024/01/16 07:15:38;;;;;;;8.85;6.05;;;;;;;;;;4990588;28;20034;-76
2024/01/16 07:18:04;;;;;;;21.80;6.25;;;;;;;;;;4989882;28;20114;-76
2024/01/16 07:20:30;;;;;;;3.80;3.42;;;;;;;;;;4986335;28;20038;-80
2024/01/16 07:22:56;;;;;;;16.00;5.40;;;;;;;;;;4991210;28;20130;-80
2024/01/16 07:25:22;;;;;;;7.15;4.43;;;;;;;;;;4993169;28;20406;-79
2024/01/16 07:27:49;;;;;;;15.32;4.88;;;;;;;;;;4980397;28;20026;-80
2024/01/16 07:30:15;;;;;;;21.52;5.57;;;;;;;;;;4987574;28;20034;-83
2024/01/16 07:32:41;;;;;;;11.48;4.00;;;;;;;;;;4991271;28;20430;-79
2024/01/16 07:35:08;;;;;;;7.82;5.57;;;;;;;;;;4993021;28;20434;-80
2024/01/16 07:37:34;;;;;;;4.95;4.35;;;;;;;;;;4986045;28;20066;-80
2024/01/16 07:40:00;;;;;;;4.95;3.80;;;;;;;;;;4990097;28;20100;-80
2024/01/16 07:42:26;;;;;;;8.05;3.55;;;;;;;;;;4986298;28;20022;-82
2024/01/16 07:44:52;;;;;;;14.43;5.28;;;-1.90;99.90;;;;;;4986204;28;20038;-79
2024/01/16 07:47:18;;;;;;;11.80;6.03;;;;;;;;;;4987916;28;20030;-80
2024/01/16 07:49:44;;;;;;;14.57;6.47;;;-1.50;99.90;;;;;;4988086;28;20270;-79
2024/01/16 07:52:12;;;;;;;10.07;4.20;;;;;;;;;;4993689;28;20279;-80
2024/01/16 07:54:37;;;;;;;;;;;-1.50;99.90;;;;;;4983853;28;20034;-83
2024/01/16 07:57:03;;;;;;;8.95;5.05;;;-1.30;99.90;;;;;;4986223;28;19921;-82
2024/01/16 07:59:29;;;;;;;16.58;7.10;;;;;;;;;;4991308;28;20088;-84
2024/01/16 08:01:55;;;;;;;13.30;6.10;;;-1.20;99.90;;;;;;4987700;28;20022;-83
2024/01/16 08:04:21;;;;;;;8.88;4.63;;;;;;;;;;4990456;28;20563;-85
2024/01/16 08:06:47;;;;;;;6.40;4.47;;;;;;;;;;4987120;28;20085;-88
2024/01/16 08:09:14;;;;;;;8.82;4.28;;;;;;;;;;4984696;28;20524;-82
2024/01/16 08:11:40;;;;;;;9.73;4.75;;;;;;;;;;4987553;28;20046;-84
2024/01/16 08:14:06;;;;;;;10.07;5.60;;;;;;;;;;4988090;28;20466;-86
2024/01/16 08:16:32;;;;;;;17.23;4.57;;;;;;;;;;4986575;28;20162;-80
2024/01/16 08:18:58;;;;;;;12.45;4.68;;;;;;;;;;4987739;28;20026;-81
2024/01/16 08:21:26;;;;;;;11.23;5.07;;;0.10;99.90;;;;;;4987575;28;20041;-75
2024/01/16 08:23:54;;;;;;;9.20;4.35;;;;;;;;;;4977219;28;20263;-74
2024/01/16 08:26:20;;;;;;;11.10;6.55;;;;;;;;;;4996477;28;20030;-74
2024/01/16 08:28:46;;;;;;;10.00;3.78;;;;;;;;;;4986120;28;20492;-75
2024/01/16 08:31:12;;;;;;;10.40;5.47;;;;;;;;;;4985567;28;20039;-75
2024/01/16 08:33:38;;;;;;;7.85;4.55;;;;;;;;;;4980145;28;20085;-75
2024/01/16 08:36:04;;;;;;;11.93;5.53;;;1.70;99.90;;;;;;4991314;28;20037;-77
2024/01/16 08:38:30;;;;;;;8.48;3.67;;;;;;;;;;4969624;28;20037;-75
2024/01/16 08:40:56;;;;;;;11.25;5.43;;;;;;;;;;4985618;28;20057;-76
2024/01/16 08:43:22;;;;;;;17.25;4.70;;;;;;;;;;4982354;28;20026;-78
2024/01/16 08:45:48;;;;;;;13.80;4.68;;;;;;;;;;4983928;28;20068;-77
2024/01/16 08:48:14;;;;;;;9.98;7.00;;;;;;;;;;4985619;28;20026;-77
2024/01/16 08:50:41;;;;;;;20.40;5.93;;;;;;;;;;4986421;28;20040;-75
2024/01/16 08:53:07;;;;;;;10.95;5.22;;;;;;;;;;4996838;28;20026;-75
2024/01/16 08:55:33;;;;;;;13.68;4.57;;;;;;;;;;4980788;28;20037;-74
2024/01/16 08:57:59;;;;;;;14.63;4.95;;;;;;;;;;4984688;28;20022;-75
2024/01/16 09:00:25;;;;;;;12.57;5.15;;;;;;;;;;4986030;28;20031;-74
2024/01/16 09:02:51;;;;;;;10.05;5.32;;;;;;;;;;4991823;28;20037;-75
2024/01/16 09:05:17;;;;;;;12.25;5.45;;;;;;;;;;4978999;28;20050;-75
2024/01/16 09:07:43;;;;;;;14.25;5.90;;;;;;;;;;4985525;28;20096;-75
2024/01/16 09:10:09;;;;;;;9.90;4.50;;;;;;;;;;4984694;28;20487;-74
2024/01/16 09:12:35;;;;;;;16.92;5.40;;;;;;;;;;4988891;28;20033;-74
2024/01/16 09:15:01;;;;;;;10.48;5.03;;;;;;;;;;4987201;28;20376;-75
2024/01/16 09:17:27;;;;;;;10.77;5.10;;;;;;;;;;4986910;28;20030;-74
2024/01/16 09:19:53;;;;;;;7.10;3.95;;;;;;;;;;4983860;28;20594;-75
2024/01/16 09:22:19;;;;;;;18.02;6.13;;;;;;;;;;4985000;28;20033;-76
2024/01/16 09:24:45;;;;;;;20.40;5.88;;;2.80;99.90;;;;;;4987454;28;20026;-77
2024/01/16 09:27:12;;;;;;;19.75;5.68;;;;;;;;;;4974216;28;20140;-78
2024/01/16 09:29:38;;;;;;;9.50;4.80;;;;;;;;;;4983911;28;20031;-77
2024/01/16 09:32:04;;;;;;;10.60;5.57;;;;;;;;;;4986493;28;20050;-77
2024/01/16 09:34:30;;;;;;;14.32;6.63;;;;;;;;;;4982281;28;20030;-76
2024/01/16 09:36:59;;;;;;;13.52;5.85;;;;;;;;;;4983938;28;20463;-73
2024/01/16 09:39:25;;;;;;;10.18;5.90;;;;;;;;;;4986870;28;20096;-76
2024/01/16 09:41:52;;;;;;;12.93;5.63;;;;;;;;;;4966345;28;20037;-73
2024/01/16 09:44:18;;;;;;;10.77;5.40;;;;;;;;;;4976926;28;20096;-74
2024/01/16 09:46:48;;;;;;;12.98;5.53;;;1.80;98.80;;;;;;4984795;28;20026;-74
2024/01/16 09:49:15;;;;;;;11.50;5.25;;;;;;;;;;4985070;28;20117;-74
2024/01/16 09:51:41;;;;;;;14.32;4.93;;;;;;;;;;4986559;28;20034;-74
2024/01/16 09:54:08;;;;;;;17.60;6.93;;;;;;;;;;4986302;28;20065;-74
2024/01/16 09:56:39;;;;;;;15.52;5.70;;;2.10;98.20;;;;;;4988694;28;20041;-74
2024/01/16 09:59:06;;;;;;;17.60;6.18;;;2.10;97.80;;;;;;4986046;28;20050;-74
2024/01/16 10:01:33;;;;;;;11.30;5.95;;;2.20;98.10;;;;;;4988944;28;20031;-74
2024/01/16 10:03:59;;;;;;;9.93;5.28;;;;;;;;;;4962399;28;20038;-72
2024/01/16 10:06:27;;;;;;;15.65;4.80;;;2.20;99.90;;;;;;4987634;28;20403;-72
2024/01/16 10:08:53;;;;;;;11.27;5.20;;;;;;;;;;4985608;28;20033;-72
2024/01/16 10:11:19;;;;;;;13.45;4.78;;;;;;;;;;4984425;28;20069;-71
2024/01/16 10:13:45;;;;;;;18.13;5.10;;;2.40;99.90;;;;;;4977688;28;20034;-71
2024/01/16 10:16:11;;;;;;;18.23;6.15;;;;;;;;;;4986463;28;20026;-73
2024/01/16 10:18:37;;;;;;;12.15;5.32;;;;;;;;;;4984549;28;20023;-74
2024/01/16 10:21:04;;;;;;;13.93;6.95;;;1.80;96.10;;;;;;4984824;28;20088;-76
2024/01/16 10:23:34;;;;;;;9.70;4.93;;;2.30;97.30;;;;;;4979368;28;20046;-75
2024/01/16 10:26:06;;;;;;;18.02;8.10;;;1.90;94.80;;;;;;4993810;28;20061;-76
2024/01/16 10:28:34;;;;;;;11.35;4.63;;;1.80;99.90;;;;;;4985847;28;20029;-75
2024/01/16 10:31:03;;;;;;;;;;;4.00;96.70;;;;;;4985966;28;20137;-76
2024/01/16 10:33:29;;;;;;;11.43;4.45;;;;;;;;;;4982712;28;19955;-74
2024/01/16 10:36:23;;;;;;;10.95;6.55;;;2.30;96.50;;;;;;4964445;28;20706;-72
2024/01/16 10:38:57;;;;;;;13.63;5.93;;;;;;;;;;4986375;28;20119;-73
2024/01/16 10:41:25;;;;;;;12.73;5.75;;;2.20;99.90;;;;;;4983935;28;20054;-73
2024/01/16 10:44:04;;;;;;;14.60;5.45;;;2.70;94.60;;;;;;4981700;28;20038;-73
2024/01/16 10:46:30;;;;;;;17.20;6.15;;;;;;;;;;4991747;28;20053;-73
2024/01/16 10:49:00;;;;;;;23.35;6.65;;;3.20;98.30;;;;;;4988712;28;20491;-73
2024/01/16 10:51:27;;;;;;;17.83;6.75;;;3.60;92.10;;;;;;4994941;28;20030;-74
2024/01/16 10:53:58;;;;;;;14.40;5.40;;;3.80;91.00;;;;;;4976007;28;20034;-79
2024/01/16 10:56:25;;;;;;;12.23;4.95;;;;;;;;;;4989553;28;20034;-75
2024/01/16 10:59:01;;;;;;;14.55;5.22;;;4.20;89.90;;;;;;4990523;28;20495;-75
2024/01/16 11:01:29;;;;;;;8.75;4.85;;;4.30;89.50;;;;;;4990244;28;20045;-75
2024/01/16 11:03:57;;;;;;;13.80;5.70;;;4.20;88.00;;;;;;4983696;28;20149;-75
2024/01/16 11:06:24;;;;;;;13.32;5.72;;;4.20;88.10;;;;;;4986421;28;20181;-75
2024/01/16 11:08:51;;;;;;;14.85;5.47;;;;;;;;;;4988299;28;20029;-75
2024/01/16 11:11:18;;;;;;;14.95;6.18;;;;;;;;;;4988540;28;20022;-75
2024/01/16 11:13:46;;;;;;;;;;;4.60;90.20;;;;;;4982704;28;20080;-75
2024/01/16 11:16:12;;;;;;;18.08;6.85;;;4.50;88.90;;;;;;4986428;28;20441;-74
2024/01/16 11:18:38;;;;;;;16.92;6.20;;;;;;;;;;4988291;28;20030;-75
2024/01/16 11:21:13;;;;;;;13.77;6.18;;;3.50;91.30;;;;;;4988436;28;20511;-75
2024/01/16 11:23:39;;;;;;;15.15;6.32;;;;;;;;;;4981450;28;20038;-75
2024/01/16 11:26:33;;;;;;;20.05;5.82;;;3.30;99.90;;;;;;4993213;28;20055;-74
2024/01/16 11:29:00;;;;;;;17.17;5.50;;;3.10;91.30;;;;;;4985822;28;20813;-74
2024/01/16 11:31:30;;;;;;;25.90;6.80;;;3.70;99.90;;;;;;4995954;28;20046;-74
2024/01/16 11:33:56;;;;;;;15.32;6.50;;;3.10;99.90;;;;;;4981382;28;20463;-74
2024/01/16 11:36:50;;;;;;;21.80;5.78;;;3.30;91.00;;;;;;4985847;28;20332;-75
2024/01/16 11:39:23;;;;;;;13.00;5.80;;;3.20;93.40;;;;;;4969948;28;20031;-75
2024/01/16 11:41:51;;;;;;;20.25;6.15;;;3.50;91.20;;;;;;4989275;28;20149;-73
2024/01/16 11:44:50;;;;;;;18.17;5.35;;;3.90;94.80;;;;;;4970683;28;20525;-75
2024/01/16 11:47:17;;;;;;;21.70;6.35;;;3.90;90.30;;;;;;4970129;28;20510;-76
2024/01/16 11:49:44;;;;;;;13.43;6.53;;;;;;;;;;4988559;28;20027;-76
2024/01/16 11:52:12;;;;;;;13.80;6.20;;;;;;;;;;4987622;28;20046;-77
2024/01/16 11:54:38;;;;;;;17.60;5.60;;;;;;;;;;4991798;28;20049;-75
2024/01/16 11:57:26;;;;;;;15.65;6.63;;;3.90;90.20;;;;;;4989548;28;20030;-76
2024/01/16 12:00:14;;;;;;;14.82;8.48;;;4.00;90.30;;;;;;4993142;28;20034;-76
2024/01/16 12:02:43;;;;;;;15.75;6.32;;;;;;;;;;4992941;28;20053;-75
2024/01/16 12:05:14;;;;;;;18.75;5.55;;;4.50;89.70;;;;;;4982679;28;20574;-75
2024/01/16 12:07:49;;;;;;;18.83;6.38;;;4.60;88.90;;;;;;4991421;28;20133;-75
2024/01/16 12:10:18;;;;;;;13.70;5.85;;;5.10;99.90;;;;;;4986856;28;20041;-76
2024/01/16 12:12:44;;;;;;;10.13;5.47;;;;;;;;;;4988959;28;20034;-74
2024/01/16 12:15:16;;;;;;;15.90;5.97;;;5.00;84.80;;;;;;4983938;28;20015;-75
2024/01/16 12:17:58;;;;;;;17.90;6.22;;;2.70;83.40;;;;;;4974000;28;20114;-80
2024/01/16 12:20:25;;;;;;;15.57;6.55;;;5.50;84.30;;;;;;4987380;28;20026;-79
2024/01/16 12:22:55;;;;;;;;;;;5.80;85.00;;;;;;4996908;28;20072;-80
2024/01/16 12:25:21;;;;;;;9.07;4.47;;;;;;;;;;4991752;28;20370;-79
2024/01/16 12:27:57;;;;;;;10.88;4.75;;;6.00;80.60;;;;;;4988433;28;20026;-77
2024/01/16 12:30:25;;;;;;;19.30;5.78;;;;;;;;;;4989436;28;20030;-77
2024/01/16 12:32:51;;;;;;;15.15;5.93;;;;;;;;;;4989029;28;20634;-77
2024/01/16 12:35:21;;;;;;;18.70;5.63;;;;;;;;;;4982367;28;20022;-77
2024/01/16 12:38:03;;;;;;;14.15;6.70;;;5.70;78.50;;;;;;4993907;28;20022;-78
2024/01/16 12:40:29;;;;;;;14.05;5.25;;;;;;;;;;4994678;28;20043;-78
2024/01/16 12:42:55;;;;;;;13.02;5.18;;;;;;;;;;4986450;28;20266;-77
2024/01/16 12:45:23;;;;;;;16.42;6.07;;;;;;;;;;4984531;28;20057;-77
2024/01/16 12:47:51;;;;;;;14.07;6.65;;;;;;;;;;4986536;28;20026;-78
2024/01/16 12:50:22;;;;;;;14.50;5.90;;;;;;;;;;4988084;28;20034;-77
2024/01/16 12:52:49;;;;;;;17.50;6.65;;;;;;;;;;5001507;28;20029;-77
2024/01/16 12:55:15;;;;;;;11.20;5.78;;;;;;;;;;4990485;28;20735;-77
2024/01/16 12:57:42;;;;;;;13.03;6.17;;;;;;;;;;4988431;28;20031;-77
2024/01/16 13:00:26;;;;;;;20.20;6.75;;;6.30;77.70;;;;;;4989626;28;20080;-77
2024/01/16 13:02:52;;;;;;;15.57;6.22;;;6.50;77.50;;;;;;4986869;28;20026;-80
2024/01/16 13:05:19;;;;;;;;;;;6.50;76.70;;;;;;4988602;28;20049;-77
2024/01/16 13:07:46;;;;;;;24.23;9.25;;;;;;;;;;4987145;28;19991;-81
2024/01/16 13:10:18;;;;;;;16.92;5.57;;;7.40;77.80;;;;;;4986945;28;20022;-81
2024/01/16 13:12:44;;;;;;;11.70;5.60;;;;;;;;;;4990379;28;20031;-76
2024/01/16 13:15:11;;;;;;;15.80;7.10;;;;;;;;;;4985057;28;20038;-75
2024/01/16 13:17:37;;;;;;;25.10;6.60;;;;;;;;;;4989167;28;20033;-75
2024/01/16 13:20:07;;;;;;;15.93;6.07;;;6.00;76.50;;;;;;4986324;28;20281;-77
2024/01/16 13:22:33;;;;;;;20.45;6.85;;;;;;;;;;4985833;28;20084;-75
2024/01/16 13:24:59;;;;;;;14.88;6.15;;;;;;;;;;4980592;28;20022;-77
2024/01/16 13:27:26;;;;;;;22.90;8.35;;;;;;;;;;4987160;28;20550;-77
2024/01/16 13:29:52;;;;;;;21.88;8.35;;;;;;;;;;4992990;28;20077;-81
2024/01/16 13:32:18;;;;;;;19.98;6.75;;;;;;;;;;4990677;28;20513;-80
2024/01/16 13:34:49;;;;;;;18.38;6.93;;;;;;;;;;4983881;28;20026;-80
2024/01/16 13:37:21;;;;;;;15.85;7.10;;;5.30;96.30;;;;;;4989862;28;20026;-80
2024/01/16 13:39:47;;;;;;;19.25;7.00;;;;;;;;;;4997165;28;20042;-82
2024/01/16 13:42:13;;;;;;;22.20;8.65;;;;;;;;;;4980053;28;20034;-87
2024/01/16 13:44:39;;;;;;;15.27;5.82;;;;;;;;;;4974301;28;20117;-84
2024/01/16 13:47:06;;;;;;;15.43;7.63;;;5.30;94.70;;;;;;4971151;28;20109;-82
2024/01/16 13:49:33;;;;;;;16.65;6.40;;;;;;;;;;4967505;28;20026;-82
2024/01/16 13:51:59;;;;;;;21.98;7.13;;;;;;;;;;4992699;28;20155;-85
2024/01/16 13:54:26;;;;;;;16.75;6.32;;;;;;;;;;4978597;28;20034;-81